Buoy 44845

sailwx.info

Track history (hours):
 
Tides and Currents Weather Stations Pressure Air Temp Water Temp Dewpoint Dewpoint Depression Visibility Wind Speed Wind Dir Waves Ship Positions

Drifting buoy 44845

Last reported at 2014-Dec-20 06:01 UTC. Time now 2014-Dec-20 07:16 UTC.
Position N 71°28' W 002°06'.

Water temperature 5.5 ° C

Date/timePositionNaut miles runAvg speedWind from/ knotsBaromVisibWave heightAir tempDewpointWater temp
2014-Dec-20 06:01N 71°28' W 002°06'0 0.4 5.5
2014-Dec-20 05:01N 71°28' W 002°06'1 0.5 5.5
2014-Dec-20 04:01N 71°29' W 002°06'1 0.5 5.5
2014-Dec-20 03:01N 71°29' W 002°06'1 0.6 5.4
2014-Dec-20 02:01N 71°30' W 002°06'1 0.6 5.4
2014-Dec-20 01:01N 71°30' W 002°06'1 0.6 5.5
2014-Dec-20 00:01N 71°31' W 002°07'1 0.7 5.6
2014-Dec-19 23:01N 71°32' W 002°08'0 0.4 5.5
2014-Dec-19 22:01N 71°32' W 002°09'0 0.4 5.4
2014-Dec-19 21:01N 71°32' W 002°10'0 0.3 5.4
2014-Dec-19 20:01N 71°32' W 002°11'0 0.2 5.4
2014-Dec-19 19:01N 71°32' W 002°11'0 0.4 5.6
2014-Dec-19 18:01N 71°33' W 002°11'0 0.3 5.7
2014-Dec-19 17:01N 71°33' W 002°10'1 0.6 5.8
2014-Dec-19 16:01N 71°34' W 002°09'0 0.0 5.8
2014-Dec-19 15:01N 71°34' W 002°09'0 0.3 5.8
2014-Dec-19 14:01N 71°34' W 002°09'0 0.2 5.6
2014-Dec-19 13:01N 71°34' W 002°09'1 0.5 5.4
2014-Dec-19 12:01N 71°35' W 002°09'0 0.3 5.7
2014-Dec-19 11:01N 71°35' W 002°09'0 0.2 5.7
2014-Dec-19 10:01N 71°35' W 002°09'0 0.4 5.7
2014-Dec-19 09:01N 71°35' W 002°08'0 0.3 5.9
2014-Dec-19 08:01N 71°36' W 002°07'0 0.3 6.0
2014-Dec-19 07:01N 71°36' W 002°06'0 0.4 6.1
2014-Dec-19 06:01N 71°36' W 002°05'1 0.5 6.0
2014-Dec-19 05:01N 71°36' W 002°04'1 0.6 5.9
2014-Dec-19 04:01N 71°37' W 002°02'1 0.7 5.7
2014-Dec-19 03:02N 71°37' W 002°00'1 0.9 5.6
2014-Dec-19 02:01N 71°38' W 001°59'1 0.7 5.7
2014-Dec-19 01:01N 71°39' W 001°58'1 1.3 5.6
2014-Dec-19 00:01N 71°40' W 002°00'1 0.7 5.6
2014-Dec-18 23:01N 71°39' W 001°58'0 0.1 5.7
2014-Dec-18 22:01N 71°40' W 001°58'0 0.0 5.8
2014-Dec-18 21:01N 71°40' W 001°58'0 0.2 5.8
2014-Dec-18 20:01N 71°40' W 001°58'0 0.3 5.8
2014-Dec-18 19:01N 71°40' W 001°57'0 0.3 5.8
2014-Dec-18 18:01N 71°40' W 001°56'0 0.4 5.8
2014-Dec-18 17:01N 71°40' W 001°55'0 0.4 5.7
2014-Dec-18 16:01N 71°40' W 001°54'0 0.3 5.7
2014-Dec-18 15:01N 71°40' W 001°53'0 0.4 5.7
2014-Dec-18 14:01N 71°41' W 001°53'0 0.2 5.6
2014-Dec-18 13:01N 71°41' W 001°53'0 0.2 5.6
2014-Dec-18 12:01N 71°41' W 001°53'0 0.2 5.6
2014-Dec-18 11:01N 71°41' W 001°53'0 0.2 5.5
2014-Dec-18 10:01N 71°41' W 001°54'0 0.2 5.4
2014-Dec-18 09:01N 71°41' W 001°54'0 0.2 5.3
2014-Dec-18 08:01N 71°41' W 001°54'0 0.3 5.2
2014-Dec-18 07:01N 71°40' W 001°54'0 0.3 5.0
2014-Dec-18 06:01N 71°40' W 001°53'0 0.3 5.1
2014-Dec-18 05:01N 71°40' W 001°53'0 0.3 5.1
2014-Dec-18 04:01N 71°40' W 001°52'0 0.3 5.1
2014-Dec-18 03:01N 71°40' W 001°51'0 0.2 5.0
2014-Dec-18 02:01N 71°40' W 001°50'0 0.1 5.0
2014-Dec-18 01:01N 71°40' W 001°50'0 0.1 5.0
2014-Dec-18 00:01N 71°40' W 001°50'0 0.1 5.1
2014-Dec-17 23:01N 71°40' W 001°51'0 0.3 5.1
2014-Dec-17 22:01N 71°40' W 001°51'1 1.2 5.1
2014-Dec-17 21:01N 71°39' W 001°54'0 0.0 5.1
2014-Dec-17 20:01N 71°39' W 001°54'0 0.4 5.2
2014-Dec-17 19:01N 71°39' W 001°53'1 0.5 5.2
2014-Dec-17 18:01N 71°38' W 001°54'0 0.4 5.2
2014-Dec-17 17:01N 71°38' W 001°54'0 0.4 5.3
2014-Dec-17 16:01N 71°37' W 001°55'0 0.4 5.4
2014-Dec-17 15:01N 71°37' W 001°55'0 0.3 5.4
2014-Dec-17 14:01N 71°37' W 001°56'0 0.3 5.5
2014-Dec-17 13:01N 71°37' W 001°56'0 0.3 5.5
2014-Dec-17 12:01N 71°36' W 001°57'0 0.4 5.5
2014-Dec-17 11:01N 71°36' W 001°58'0 0.5 5.6
2014-Dec-17 10:01N 71°35' W 001°58'0 0.5 5.6
2014-Dec-17 09:01N 71°35' W 001°59'1 0.7 5.6
2014-Dec-17 08:01N 71°34' W 001°59'1 0.7 5.6
2014-Dec-17 07:01N 71°34' W 001°59'1 0.6 5.6
2014-Dec-17 06:01N 71°33' W 001°59'0 0.4 5.7
2014-Dec-17 05:01N 71°33' W 001°59'0 0.4 5.7
2014-Dec-17 04:01N 71°32' W 001°59'0 0.2 5.8
2014-Dec-17 03:01N 71°32' W 001°59'0 0.3 5.8
2014-Dec-17 02:01N 71°32' W 001°60'0 0.1 5.7
2014-Dec-17 01:01N 71°32' W 001°60'0 0.3 5.8
2014-Dec-17 00:01N 71°32' W 002°00'0 0.2 5.8
2014-Dec-16 23:01N 71°31' W 002°01'0 0.3 5.8
2014-Dec-16 22:01N 71°31' W 002°01'0 0.3 5.8
2014-Dec-16 21:01N 71°31' W 002°02'0 0.4 5.8
2014-Dec-16 20:01N 71°30' W 002°02'0 0.4 5.8
2014-Dec-16 19:01N 71°30' W 002°02'0 0.4 5.8
2014-Dec-16 18:01N 71°30' W 002°02'0 0.3 5.8
2014-Dec-16 17:01N 71°29' W 002°02'4 0.2 5.8
2014-Dec-16 00:01N 71°30' W 001°49'1 0.6 5.8
2014-Dec-15 23:01N 71°31' W 001°49'1 0.7 5.8
2014-Dec-15 22:01N 71°31' W 001°47'1 0.6 5.8
2014-Dec-15 21:01N 71°32' W 001°47'1 0.7 5.8
2014-Dec-15 20:01N 71°32' W 001°46'1 0.6 5.8
2014-Dec-15 19:01N 71°33' W 001°45'1 0.6 6.2
2014-Dec-15 18:01N 71°34' W 001°44'0 0.2 6.2
2014-Dec-15 17:01N 71°34' W 001°44'1 0.6 6.2
2014-Dec-15 16:01N 71°34' W 001°43'1 0.6 6.2
2014-Dec-15 15:01N 71°35' W 001°43'1 0.6 6.2
2014-Dec-15 14:01N 71°35' W 001°42'1 0.7 6.1
2014-Dec-15 13:01N 71°36' W 001°41'1 0.6 6.1
2014-Dec-15 12:01N 71°37' W 001°40'1 0.6 5.9
2014-Dec-15 11:01N 71°37' W 001°40'1 0.6 5.8
2014-Dec-15 10:01N 71°38' W 001°39'1 0.6 5.8
2014-Dec-15 09:01N 71°38' W 001°39'1 0.6 5.8
2014-Dec-15 08:01N 71°39' W 001°38'1 0.6 5.8
2014-Dec-15 07:01N 71°40' W 001°39'1 0.6 5.9
2014-Dec-15 06:01N 71°40' W 001°40'0 0.0 5.9
2014-Dec-15 05:01N 71°40' W 001°40'0 0.0 5.8
2014-Dec-15 04:01N 71°40' W 001°40'0 0.2 5.6
2014-Dec-15 03:01N 71°40' W 001°39'0 0.2 5.6
2014-Dec-15 02:01N 71°40' W 001°38'0 0.4 5.8
2014-Dec-15 01:01N 71°40' W 001°37'0 0.4 5.8
2014-Dec-15 00:01N 71°40' W 001°36'0 0.2 5.8
2014-Dec-14 23:01N 71°40' W 001°35'1 0.6 5.7
2014-Dec-14 22:01N 71°41' W 001°35'0 0.0 4.9
2014-Dec-14 21:01N 71°41' W 001°35'0 0.2 4.7
2014-Dec-14 20:01N 71°41' W 001°35'0 0.2 5.0
2014-Dec-14 19:01N 71°41' W 001°36'0 0.4 5.4
2014-Dec-14 18:01N 71°41' W 001°37'1 1.0 5.6
2014-Dec-14 17:01N 71°40' W 001°40'0 0.4 5.7
2014-Dec-14 16:01N 71°40' W 001°41'1 0.8 5.9
2014-Dec-14 15:01N 71°40' W 001°43'1 1.1 5.9
2014-Dec-14 14:01N 71°39' W 001°46'0 0.0 5.9
2014-Dec-14 13:01N 71°39' W 001°46'1 0.7 6.0
2014-Dec-14 12:01N 71°38' W 001°47'1 0.6 6.0
2014-Dec-14 11:01N 71°38' W 001°49'1 0.7 6.0
2014-Dec-14 10:01N 71°39' W 001°50'1 0.8 6.0
2014-Dec-14 09:01N 71°38' W 001°52'1 0.6 6.0
2014-Dec-14 08:01N 71°38' W 001°53'1 0.8 5.9
2014-Dec-14 07:01N 71°38' W 001°56'1 0.8 5.9
2014-Dec-14 06:01N 71°38' W 001°58'1 0.8 5.9
2014-Dec-14 05:01N 71°38' W 002°01'1 0.6 5.8
2014-Dec-14 04:01N 71°38' W 002°02'1 0.8 5.9
2014-Dec-14 03:01N 71°38' W 002°04'1 0.7 5.8
2014-Dec-14 02:01N 71°38' W 002°06'1 0.7 5.8
2014-Dec-14 01:01N 71°37' W 002°08'0 0.5 5.6
2014-Dec-14 00:01N 71°37' W 002°10'11 0.5 5.5
2014-Dec-13 00:01N 71°48' W 002°12'1 0.9 4.4
2014-Dec-12 23:01N 71°49' W 002°14'1 1.0 4.5
2014-Dec-12 22:01N 71°49' W 002°16'1 0.8 4.5
2014-Dec-12 21:01N 71°50' W 002°17'1 0.8 4.2
2014-Dec-12 20:01N 71°51' W 002°18'1 0.9 4.3
2014-Dec-12 19:01N 71°52' W 002°20'1 0.9 4.4
2014-Dec-12 18:01N 71°52' W 002°22'4 0.6 4.0
2014-Dec-12 12:01N 71°55' W 002°28'3 0.5 3.7
2014-Dec-12 05:01N 71°58' W 002°29'1 0.4 3.2
2014-Dec-12 02:01N 71°60' W 002°28'1 0.6 3.3
2014-Dec-12 01:01N 72°00' W 002°27'1 0.5 3.4
2014-Dec-12 00:01N 72°01' W 002°26'1 0.6 3.4
2014-Dec-11 22:01N 72°02' W 002°25'1 0.5 3.6
2014-Dec-11 21:01N 72°02' W 002°25'0 0.5 3.6
2014-Dec-11 20:01N 72°03' W 002°25'0 0.5 3.6
2014-Dec-11 19:01N 72°03' W 002°24'0 0.4 3.6
2014-Dec-11 18:01N 72°04' W 002°24'0 0.4 3.6
2014-Dec-11 17:01N 72°04' W 002°23'0 0.4 3.6
2014-Dec-11 16:01N 72°05' W 002°23'0 0.5 3.6
2014-Dec-11 15:01N 72°05' W 002°22'0 0.5 3.6
2014-Dec-11 14:01N 72°05' W 002°21'1 0.6 3.6
2014-Dec-11 13:01N 72°06' W 002°20'1 0.6 3.6
2014-Dec-11 12:01N 72°06' W 002°19'1 0.6 3.5
2014-Dec-11 11:01N 72°07' W 002°18'1 0.7 3.5
2014-Dec-11 10:01N 72°07' W 002°17'1 0.6 3.5
2014-Dec-11 09:01N 72°08' W 002°16'1 0.6 3.6
2014-Dec-11 08:01N 72°08' W 002°15'0 0.5 3.5
2014-Dec-11 07:01N 72°09' W 002°15'0 0.3 3.5
2014-Dec-11 06:01N 72°09' W 002°14'0 0.4 3.5
2014-Dec-11 05:01N 72°09' W 002°14'0 0.4 3.5
2014-Dec-11 04:01N 72°10' W 002°13'1 0.5 3.4
2014-Dec-11 03:01N 72°10' W 002°11'1 0.6 3.3
2014-Dec-11 02:01N 72°10' W 002°09'1 0.7 3.2
2014-Dec-11 01:01N 72°11' W 002°07'1 0.9 3.0
2014-Dec-11 00:01N 72°11' W 002°05'1 0.9 2.8
2014-Dec-10 23:01N 72°12' W 002°03'1 0.9 2.9
2014-Dec-10 22:01N 72°12' W 002°01'1 0.9 3.0
2014-Dec-10 21:01N 72°13' W 001°60'1 0.7 3.1
2014-Dec-10 20:01N 72°14' W 001°58'1 0.6 3.3
2014-Dec-10 19:01N 72°14' W 001°57'1 0.5 3.0
2014-Dec-10 18:01N 72°15' W 001°56'1 0.6 3.1
2014-Dec-10 17:01N 72°15' W 001°54'1 0.6 3.3
2014-Dec-10 16:01N 72°15' W 001°52'1 0.6 3.2
2014-Dec-10 15:01N 72°15' W 001°50'1 0.6 3.4
2014-Dec-10 14:01N 72°15' W 001°48'0 0.5 3.8
2014-Dec-10 13:01N 72°15' W 001°47'1 0.5 4.0
2014-Dec-10 12:01N 72°15' W 001°45'1 0.6 4.2
2014-Dec-10 11:01N 72°15' W 001°43'1 0.6 4.4
2014-Dec-10 10:01N 72°14' W 001°42'1 0.5 4.7
2014-Dec-10 09:01N 72°14' W 001°40'1 0.5 4.8
2014-Dec-10 08:01N 72°14' W 001°38'1 0.7 4.9
2014-Dec-10 06:01N 72°14' W 001°34'   4.9
Track history (hours):
 
Tides and Currents Weather Stations Pressure Air Temp Water Temp Dewpoint Dewpoint Depression Visibility Wind Speed Wind Dir Waves Ship Positions

Drifting buoy 44845

Last reported at 2014-Dec-20 06:01 UTC. Time now 2014-Dec-20 07:16 UTC.
Position N 71°28' W 002°06'.

Water temperature 5.5 ° C

Date/timePositionNaut miles runAvg speedWind from/ knotsBaromVisibWave heightAir tempDewpointWater temp
2014-Dec-20 06:01N 71°28' W 002°06'0 0.4 5.5
2014-Dec-20 05:01N 71°28' W 002°06'1 0.5 5.5
2014-Dec-20 04:01N 71°29' W 002°06'1 0.5 5.5
2014-Dec-20 03:01N 71°29' W 002°06'1 0.6 5.4
2014-Dec-20 02:01N 71°30' W 002°06'1 0.6 5.4
2014-Dec-20 01:01N 71°30' W 002°06'1 0.6 5.5
2014-Dec-20 00:01N 71°31' W 002°07'1 0.7 5.6
2014-Dec-19 23:01N 71°32' W 002°08'0 0.4 5.5
2014-Dec-19 22:01N 71°32' W 002°09'0 0.4 5.4
2014-Dec-19 21:01N 71°32' W 002°10'0 0.3 5.4
2014-Dec-19 20:01N 71°32' W 002°11'0 0.2 5.4
2014-Dec-19 19:01N 71°32' W 002°11'0 0.4 5.6
2014-Dec-19 18:01N 71°33' W 002°11'0 0.3 5.7
2014-Dec-19 17:01N 71°33' W 002°10'1 0.6 5.8
2014-Dec-19 16:01N 71°34' W 002°09'0 0.0 5.8
2014-Dec-19 15:01N 71°34' W 002°09'0 0.3 5.8
2014-Dec-19 14:01N 71°34' W 002°09'0 0.2 5.6
2014-Dec-19 13:01N 71°34' W 002°09'1 0.5 5.4
2014-Dec-19 12:01N 71°35' W 002°09'0 0.3 5.7
2014-Dec-19 11:01N 71°35' W 002°09'0 0.2 5.7
2014-Dec-19 10:01N 71°35' W 002°09'0 0.4 5.7
2014-Dec-19 09:01N 71°35' W 002°08'0 0.3 5.9
2014-Dec-19 08:01N 71°36' W 002°07'0 0.3 6.0
2014-Dec-19 07:01N 71°36' W 002°06'0 0.4 6.1
2014-Dec-19 06:01N 71°36' W 002°05'1 0.5 6.0
2014-Dec-19 05:01N 71°36' W 002°04'1 0.6 5.9
2014-Dec-19 04:01N 71°37' W 002°02'1 0.7 5.7
2014-Dec-19 03:02N 71°37' W 002°00'1 0.9 5.6
2014-Dec-19 02:01N 71°38' W 001°59'1 0.7 5.7
2014-Dec-19 01:01N 71°39' W 001°58'1 1.3 5.6
2014-Dec-19 00:01N 71°40' W 002°00'1 0.7 5.6
2014-Dec-18 23:01N 71°39' W 001°58'0 0.1 5.7
2014-Dec-18 22:01N 71°40' W 001°58'0 0.0 5.8
2014-Dec-18 21:01N 71°40' W 001°58'0 0.2 5.8
2014-Dec-18 20:01N 71°40' W 001°58'0 0.3 5.8
2014-Dec-18 19:01N 71°40' W 001°57'0 0.3 5.8
2014-Dec-18 18:01N 71°40' W 001°56'0 0.4 5.8
2014-Dec-18 17:01N 71°40' W 001°55'0 0.4 5.7
2014-Dec-18 16:01N 71°40' W 001°54'0 0.3 5.7
2014-Dec-18 15:01N 71°40' W 001°53'0 0.4 5.7
2014-Dec-18 14:01N 71°41' W 001°53'0 0.2 5.6
2014-Dec-18 13:01N 71°41' W 001°53'0 0.2 5.6
2014-Dec-18 12:01N 71°41' W 001°53'0 0.2 5.6
2014-Dec-18 11:01N 71°41' W 001°53'0 0.2 5.5
2014-Dec-18 10:01N 71°41' W 001°54'0 0.2 5.4
2014-Dec-18 09:01N 71°41' W 001°54'0 0.2 5.3
2014-Dec-18 08:01N 71°41' W 001°54'0 0.3 5.2
2014-Dec-18 07:01N 71°40' W 001°54'0 0.3 5.0
2014-Dec-18 06:01N 71°40' W 001°53'0 0.3 5.1
2014-Dec-18 05:01N 71°40' W 001°53'0 0.3 5.1
2014-Dec-18 04:01N 71°40' W 001°52'0 0.3 5.1
2014-Dec-18 03:01N 71°40' W 001°51'0 0.2 5.0
2014-Dec-18 02:01N 71°40' W 001°50'0 0.1 5.0
2014-Dec-18 01:01N 71°40' W 001°50'0 0.1 5.0
2014-Dec-18 00:01N 71°40' W 001°50'0 0.1 5.1
2014-Dec-17 23:01N 71°40' W 001°51'0 0.3 5.1
2014-Dec-17 22:01N 71°40' W 001°51'1 1.2 5.1
2014-Dec-17 21:01N 71°39' W 001°54'0 0.0 5.1
2014-Dec-17 20:01N 71°39' W 001°54'0 0.4 5.2
2014-Dec-17 19:01N 71°39' W 001°53'1 0.5 5.2
2014-Dec-17 18:01N 71°38' W 001°54'0 0.4 5.2
2014-Dec-17 17:01N 71°38' W 001°54'0 0.4 5.3
2014-Dec-17 16:01N 71°37' W 001°55'0 0.4 5.4
2014-Dec-17 15:01N 71°37' W 001°55'0 0.3 5.4
2014-Dec-17 14:01N 71°37' W 001°56'0 0.3 5.5
2014-Dec-17 13:01N 71°37' W 001°56'0 0.3 5.5
2014-Dec-17 12:01N 71°36' W 001°57'0 0.4 5.5
2014-Dec-17 11:01N 71°36' W 001°58'0 0.5 5.6
2014-Dec-17 10:01N 71°35' W 001°58'0 0.5 5.6
2014-Dec-17 09:01N 71°35' W 001°59'1 0.7 5.6
2014-Dec-17 08:01N 71°34' W 001°59'1 0.7 5.6
2014-Dec-17 07:01N 71°34' W 001°59'1 0.6 5.6
2014-Dec-17 06:01N 71°33' W 001°59'0 0.4 5.7
2014-Dec-17 05:01N 71°33' W 001°59'0 0.4 5.7
2014-Dec-17 04:01N 71°32' W 001°59'0 0.2 5.8
2014-Dec-17 03:01N 71°32' W 001°59'0 0.3 5.8
2014-Dec-17 02:01N 71°32' W 001°60'0 0.1 5.7
2014-Dec-17 01:01N 71°32' W 001°60'0 0.3 5.8
2014-Dec-17 00:01N 71°32' W 002°00'0 0.2 5.8
2014-Dec-16 23:01N 71°31' W 002°01'0 0.3 5.8
2014-Dec-16 22:01N 71°31' W 002°01'0 0.3 5.8
2014-Dec-16 21:01N 71°31' W 002°02'0 0.4 5.8
2014-Dec-16 20:01N 71°30' W 002°02'0 0.4 5.8
2014-Dec-16 19:01N 71°30' W 002°02'0 0.4 5.8
2014-Dec-16 18:01N 71°30' W 002°02'0 0.3 5.8
2014-Dec-16 17:01N 71°29' W 002°02'4 0.2 5.8
2014-Dec-16 00:01N 71°30' W 001°49'1 0.6 5.8
2014-Dec-15 23:01N 71°31' W 001°49'1 0.7 5.8
2014-Dec-15 22:01N 71°31' W 001°47'1 0.6 5.8
2014-Dec-15 21:01N 71°32' W 001°47'1 0.7 5.8
2014-Dec-15 20:01N 71°32' W 001°46'1 0.6 5.8
2014-Dec-15 19:01N 71°33' W 001°45'1 0.6 6.2
2014-Dec-15 18:01N 71°34' W 001°44'0 0.2 6.2
2014-Dec-15 17:01N 71°34' W 001°44'1 0.6 6.2
2014-Dec-15 16:01N 71°34' W 001°43'1 0.6 6.2
2014-Dec-15 15:01N 71°35' W 001°43'1 0.6 6.2
2014-Dec-15 14:01N 71°35' W 001°42'1 0.7 6.1
2014-Dec-15 13:01N 71°36' W 001°41'1 0.6 6.1
2014-Dec-15 12:01N 71°37' W 001°40'1 0.6 5.9
2014-Dec-15 11:01N 71°37' W 001°40'1 0.6 5.8
2014-Dec-15 10:01N 71°38' W 001°39'1 0.6 5.8
2014-Dec-15 09:01N 71°38' W 001°39'1 0.6 5.8
2014-Dec-15 08:01N 71°39' W 001°38'1 0.6 5.8
2014-Dec-15 07:01N 71°40' W 001°39'1 0.6 5.9
2014-Dec-15 06:01N 71°40' W 001°40'0 0.0 5.9
2014-Dec-15 05:01N 71°40' W 001°40'0 0.0 5.8
2014-Dec-15 04:01N 71°40' W 001°40'0 0.2 5.6
2014-Dec-15 03:01N 71°40' W 001°39'0 0.2 5.6
2014-Dec-15 02:01N 71°40' W 001°38'0 0.4 5.8
2014-Dec-15 01:01N 71°40' W 001°37'0 0.4 5.8
2014-Dec-15 00:01N 71°40' W 001°36'0 0.2 5.8
2014-Dec-14 23:01N 71°40' W 001°35'1 0.6 5.7
2014-Dec-14 22:01N 71°41' W 001°35'0 0.0 4.9
2014-Dec-14 21:01N 71°41' W 001°35'0 0.2 4.7
2014-Dec-14 20:01N 71°41' W 001°35'0 0.2 5.0
2014-Dec-14 19:01N 71°41' W 001°36'0 0.4 5.4
2014-Dec-14 18:01N 71°41' W 001°37'1 1.0 5.6
2014-Dec-14 17:01N 71°40' W 001°40'0 0.4 5.7
2014-Dec-14 16:01N 71°40' W 001°41'1 0.8 5.9
2014-Dec-14 15:01N 71°40' W 001°43'1 1.1 5.9
2014-Dec-14 14:01N 71°39' W 001°46'0 0.0 5.9
2014-Dec-14 13:01N 71°39' W 001°46'1 0.7 6.0
2014-Dec-14 12:01N 71°38' W 001°47'1 0.6 6.0
2014-Dec-14 11:01N 71°38' W 001°49'1 0.7 6.0
2014-Dec-14 10:01N 71°39' W 001°50'1 0.8 6.0
2014-Dec-14 09:01N 71°38' W 001°52'1 0.6 6.0
2014-Dec-14 08:01N 71°38' W 001°53'1 0.8 5.9
2014-Dec-14 07:01N 71°38' W 001°56'1 0.8 5.9
2014-Dec-14 06:01N 71°38' W 001°58'1 0.8 5.9
2014-Dec-14 05:01N 71°38' W 002°01'1 0.6 5.8
2014-Dec-14 04:01N 71°38' W 002°02'1 0.8 5.9
2014-Dec-14 03:01N 71°38' W 002°04'1 0.7 5.8
2014-Dec-14 02:01N 71°38' W 002°06'1 0.7 5.8
2014-Dec-14 01:01N 71°37' W 002°08'0 0.5 5.6
2014-Dec-14 00:01N 71°37' W 002°10'11 0.5 5.5
2014-Dec-13 00:01N 71°48' W 002°12'1 0.9 4.4
2014-Dec-12 23:01N 71°49' W 002°14'1 1.0 4.5
2014-Dec-12 22:01N 71°49' W 002°16'1 0.8 4.5
2014-Dec-12 21:01N 71°50' W 002°17'1 0.8 4.2
2014-Dec-12 20:01N 71°51' W 002°18'1 0.9 4.3
2014-Dec-12 19:01N 71°52' W 002°20'1 0.9 4.4
2014-Dec-12 18:01N 71°52' W 002°22'4 0.6 4.0
2014-Dec-12 12:01N 71°55' W 002°28'3 0.5 3.7
2014-Dec-12 05:01N 71°58' W 002°29'1 0.4 3.2
2014-Dec-12 02:01N 71°60' W 002°28'1 0.6 3.3
2014-Dec-12 01:01N 72°00' W 002°27'1 0.5 3.4
2014-Dec-12 00:01N 72°01' W 002°26'1 0.6 3.4
2014-Dec-11 22:01N 72°02' W 002°25'1 0.5 3.6
2014-Dec-11 21:01N 72°02' W 002°25'0 0.5 3.6
2014-Dec-11 20:01N 72°03' W 002°25'0 0.5 3.6
2014-Dec-11 19:01N 72°03' W 002°24'0 0.4 3.6
2014-Dec-11 18:01N 72°04' W 002°24'0 0.4 3.6
2014-Dec-11 17:01N 72°04' W 002°23'0 0.4 3.6
2014-Dec-11 16:01N 72°05' W 002°23'0 0.5 3.6
2014-Dec-11 15:01N 72°05' W 002°22'0 0.5 3.6
2014-Dec-11 14:01N 72°05' W 002°21'1 0.6 3.6
2014-Dec-11 13:01N 72°06' W 002°20'1 0.6 3.6
2014-Dec-11 12:01N 72°06' W 002°19'1 0.6 3.5
2014-Dec-11 11:01N 72°07' W 002°18'1 0.7 3.5
2014-Dec-11 10:01N 72°07' W 002°17'1 0.6 3.5
2014-Dec-11 09:01N 72°08' W 002°16'1 0.6 3.6
2014-Dec-11 08:01N 72°08' W 002°15'0 0.5 3.5
2014-Dec-11 07:01N 72°09' W 002°15'0 0.3 3.5
2014-Dec-11 06:01N 72°09' W 002°14'0 0.4 3.5
2014-Dec-11 05:01N 72°09' W 002°14'0 0.4 3.5
2014-Dec-11 04:01N 72°10' W 002°13'1 0.5 3.4
2014-Dec-11 03:01N 72°10' W 002°11'1 0.6 3.3
2014-Dec-11 02:01N 72°10' W 002°09'1 0.7 3.2
2014-Dec-11 01:01N 72°11' W 002°07'1 0.9 3.0
2014-Dec-11 00:01N 72°11' W 002°05'1 0.9 2.8
2014-Dec-10 23:01N 72°12' W 002°03'1 0.9 2.9
2014-Dec-10 22:01N 72°12' W 002°01'1 0.9 3.0
2014-Dec-10 21:01N 72°13' W 001°60'1 0.7 3.1
2014-Dec-10 20:01N 72°14' W 001°58'1 0.6 3.3
2014-Dec-10 19:01N 72°14' W 001°57'1 0.5 3.0
2014-Dec-10 18:01N 72°15' W 001°56'1 0.6 3.1
2014-Dec-10 17:01N 72°15' W 001°54'1 0.6 3.3
2014-Dec-10 16:01N 72°15' W 001°52'1 0.6 3.2
2014-Dec-10 15:01N 72°15' W 001°50'1 0.6 3.4
2014-Dec-10 14:01N 72°15' W 001°48'0 0.5 3.8
2014-Dec-10 13:01N 72°15' W 001°47'1 0.5 4.0
2014-Dec-10 12:01N 72°15' W 001°45'1 0.6 4.2
2014-Dec-10 11:01N 72°15' W 001°43'1 0.6 4.4
2014-Dec-10 10:01N 72°14' W 001°42'1 0.5 4.7
2014-Dec-10 09:01N 72°14' W 001°40'1 0.5 4.8
2014-Dec-10 08:01N 72°14' W 001°38'1 0.7 4.9
2014-Dec-10 06:01N 72°14' W 001°34'   4.9

Dump ship's entire track history